Mountain Home, Idaho
Current Conditions -  °F | °C
As of 12:58 AM on Monday 24 Nov 2014 (Local Time) from KMUO Reporting Station
Overcast Overcast  
Wind Chill: 29°   Ceiling: 5000
Heat Index: 35°   Visibility: 10mi
Dew Point: 35°   Wind: 8mph
Humidity: 99%   Direction: 350°N
Pressure: 30.24"   Gusts: NA
Location:  43.13°N, 115.69°W
Report Text: KMUO 240758Z AUTO 35007KT 10SM OVC050 02/02 A3024 RMK AO2 RAB0724E0749DZB0722E0724 SLP254 P0000 T00180016
Loading
Personal Weather Stations






























Interactive Weather Map New forecast layout! Learn more

10-Day Weather Forecast

Advertisements
Track Severe Weather on mobile